Portada
METAR-TAF:

METAR-TAF

Aeroports :

Gwadar, Pakistan

latitud: 25-13-59N, longitud: 062-19-46E, altitud: 29 m

METAR: manca

Hora: 08:06 (03:06 UTC)

Pronòstic

L'informe es va fer fa 5 hores i 36 minuts, a les 21:30 UTC
Pronòstic vàlid del 25 a les 00 UTC al 25 a les 24 UTC
Vent 7 kt del Sud-Oest amb ràfegues de 17 kt
Visibilitat: 6000 m
Núvols disperses a una alçada de 3000 ft
Temporalment
l' 25 a les 00 UTC al 25 a les 04 UTC
Vent 3 kt amb direcció variable
Visibilitat: 2000 m
Núvols disperses a una alçada de 2000 ft
boirina
A partir de les 25 a les 1500 UTC
Vent 8 kt del Sud-Oest
Visibilitat: 4000 m
Núvols disperses a una alçada de 3000 ft
fum

TAF: OPGD 242130Z 2500/2524 23007G17KT 6000 SCT030 TEMPO 2500/2504 VRB03KT 2000 BR SCT020 FM251500 23008KT 4000 FU SCT030

Observacions i pronòstics meteorològics de més de 4000 aeroports (METAR i TAF).

Les estacions disponibles són els punts grocs i vermells al mapa.

Posi el ratolí al punt desitjat per veure el nom de l'estació.

Feu clic per veure les observacions i els pronòstics meteorològics.

Per canviar el mapa: feu clic els botons verds amb una creu de color negre per apropar; al botó verd amb un guió per allunyar la imatge; o en les fletxes verdes per a mapes adjacents.


METAR-TAF: